sensor_id;sensor_type;location;lat;lon;timestamp;temperature;humidity
8557;DHT22;4316;53.840;10.762;2022-12-07T00:01:31;3.00;99.90
8557;DHT22;4316;53.840;10.762;2022-12-07T00:03:59;2.90;99.90
8557;DHT22;4316;53.840;10.762;2022-12-07T00:06:42;3.00;99.90
8557;DHT22;4316;53.840;10.762;2022-12-07T00:09:14;3.00;99.90
8557;DHT22;4316;53.840;10.762;2022-12-07T00:11:40;3.00;99.90
8557;DHT22;4316;53.840;10.762;2022-12-07T00:14:09;3.00;99.90
8557;DHT22;4316;53.840;10.762;2022-12-07T00:16:35;3.00;99.90
8557;DHT22;4316;53.840;10.762;2022-12-07T00:19:03;3.00;99.90
8557;DHT22;4316;53.840;10.762;2022-12-07T00:21:34;3.00;99.90
8557;DHT22;4316;53.840;10.762;2022-12-07T00:24:00;3.00;99.90
8557;DHT22;4316;53.840;10.762;2022-12-07T00:26:29;3.00;99.90
8557;DHT22;4316;53.840;10.762;2022-12-07T00:29:01;3.00;99.90
8557;DHT22;4316;53.840;10.762;2022-12-07T00:31:29;3.00;99.90
8557;DHT22;4316;53.840;10.762;2022-12-07T00:33:56;3.00;99.90
8557;DHT22;4316;53.840;10.762;2022-12-07T00:36:23;3.10;99.90
8557;DHT22;4316;53.840;10.762;2022-12-07T00:38:49;3.10;99.90
8557;DHT22;4316;53.840;10.762;2022-12-07T00:41:19;3.10;99.90
8557;DHT22;4316;53.840;10.762;2022-12-07T00:43:46;3.10;99.90
8557;DHT22;4316;53.840;10.762;2022-12-07T00:46:13;3.10;99.90
8557;DHT22;4316;53.840;10.762;2022-12-07T00:48:39;3.10;99.90
8557;DHT22;4316;53.840;10.762;2022-12-07T00:51:06;3.10;99.90
8557;DHT22;4316;53.840;10.762;2022-12-07T00:53:34;3.00;99.90
8557;DHT22;4316;53.840;10.762;2022-12-07T00:56:12;3.10;99.90
8557;DHT22;4316;53.840;10.762;2022-12-07T00:58:38;3.00;99.90
8557;DHT22;4316;53.840;10.762;2022-12-07T01:01:05;3.00;99.90
8557;DHT22;4316;53.840;10.762;2022-12-07T01:03:31;3.00;99.90
8557;DHT22;4316;53.840;10.762;2022-12-07T01:05:57;3.00;99.90
8557;DHT22;4316;53.840;10.762;2022-12-07T01:08:24;3.00;99.90
8557;DHT22;4316;53.840;10.762;2022-12-07T01:10:58;3.10;99.90
8557;DHT22;4316;53.840;10.762;2022-12-07T01:13:24;3.10;99.90
8557;DHT22;4316;53.840;10.762;2022-12-07T01:15:49;3.20;99.90
8557;DHT22;4316;53.840;10.762;2022-12-07T01:18:15;3.20;99.90
8557;DHT22;4316;53.840;10.762;2022-12-07T01:20:40;3.20;99.90
8557;DHT22;4316;53.840;10.762;2022-12-07T01:23:06;3.20;99.90
8557;DHT22;4316;53.840;10.762;2022-12-07T01:25:32;3.20;99.90
8557;DHT22;4316;53.840;10.762;2022-12-07T01:27:57;3.20;99.90
8557;DHT22;4316;53.840;10.762;2022-12-07T01:30:23;3.20;99.90
8557;DHT22;4316;53.840;10.762;2022-12-07T01:32:48;3.30;99.90
8557;DHT22;4316;53.840;10.762;2022-12-07T01:35:14;3.30;99.90
8557;DHT22;4316;53.840;10.762;2022-12-07T01:37:39;3.30;99.90
8557;DHT22;4316;53.840;10.762;2022-12-07T01:40:07;3.20;99.90
8557;DHT22;4316;53.840;10.762;2022-12-07T01:42:34;3.20;99.90
8557;DHT22;4316;53.840;10.762;2022-12-07T01:47:48;3.30;99.90
8557;DHT22;4316;53.840;10.762;2022-12-07T01:50:15;3.30;99.90
8557;DHT22;4316;53.840;10.762;2022-12-07T01:52:41;3.30;99.90
8557;DHT22;4316;53.840;10.762;2022-12-07T01:55:11;3.30;99.90
8557;DHT22;4316;53.840;10.762;2022-12-07T01:57:40;3.40;99.90
8557;DHT22;4316;53.840;10.762;2022-12-07T02:00:09;3.40;99.90
8557;DHT22;4316;53.840;10.762;2022-12-07T02:03:05;3.40;99.90
8557;DHT22;4316;53.840;10.762;2022-12-07T02:05:34;3.40;99.90
8557;DHT22;4316;53.840;10.762;2022-12-07T02:08:00;3.40;99.90
8557;DHT22;4316;53.840;10.762;2022-12-07T02:10:29;3.50;99.90
8557;DHT22;4316;53.840;10.762;2022-12-07T02:13:21;3.50;99.90
8557;DHT22;4316;53.840;10.762;2022-12-07T02:21:13;3.50;99.90
8557;DHT22;4316;53.840;10.762;2022-12-07T02:24:12;3.50;99.90
8557;DHT22;4316;53.840;10.762;2022-12-07T02:29:25;3.50;99.90
8557;DHT22;4316;53.840;10.762;2022-12-07T02:32:13;3.60;99.90
8557;DHT22;4316;53.840;10.762;2022-12-07T02:40:08;3.70;99.90
8557;DHT22;4316;53.840;10.762;2022-12-07T02:42:40;3.60;99.90
8557;DHT22;4316;53.840;10.762;2022-12-07T02:45:08;3.60;99.90
8557;DHT22;4316;53.840;10.762;2022-12-07T02:47:36;3.60;99.90
8557;DHT22;4316;53.840;10.762;2022-12-07T02:50:06;3.60;99.90
8557;DHT22;4316;53.840;10.762;2022-12-07T02:52:32;3.70;99.90
8557;DHT22;4316;53.840;10.762;2022-12-07T02:54:57;3.70;99.90
8557;DHT22;4316;53.840;10.762;2022-12-07T02:57:44;3.70;99.90
8557;DHT22;4316;53.840;10.762;2022-12-07T03:00:15;3.70;99.90
8557;DHT22;4316;53.840;10.762;2022-12-07T03:08:35;3.70;99.90
8557;DHT22;4316;53.840;10.762;2022-12-07T03:11:09;3.70;99.90
8557;DHT22;4316;53.840;10.762;2022-12-07T03:13:57;3.70;99.90
8557;DHT22;4316;53.840;10.762;2022-12-07T03:16:27;3.80;99.90
8557;DHT22;4316;53.840;10.762;2022-12-07T03:19:01;3.80;99.90
8557;DHT22;4316;53.840;10.762;2022-12-07T03:21:40;3.80;99.90
8557;DHT22;4316;53.840;10.762;2022-12-07T03:24:14;3.70;99.90
8557;DHT22;4316;53.840;10.762;2022-12-07T03:27:06;3.70;99.90
8557;DHT22;4316;53.840;10.762;2022-12-07T03:29:47;3.80;99.90
8557;DHT22;4316;53.840;10.762;2022-12-07T03:37:23;3.80;99.90
8557;DHT22;4316;53.840;10.762;2022-12-07T03:40:10;3.70;99.90
8557;DHT22;4316;53.840;10.762;2022-12-07T03:42:36;3.70;99.90
8557;DHT22;4316;53.840;10.762;2022-12-07T03:45:02;3.80;99.90
8557;DHT22;4316;53.840;10.762;2022-12-07T03:48:05;3.70;99.90
8557;DHT22;4316;53.840;10.762;2022-12-07T03:50:53;3.70;99.90
8557;DHT22;4316;53.840;10.762;2022-12-07T03:53:28;3.70;99.90
8557;DHT22;4316;53.840;10.762;2022-12-07T03:55:57;3.70;99.90
8557;DHT22;4316;53.840;10.762;2022-12-07T03:58:24;3.80;99.90
8557;DHT22;4316;53.840;10.762;2022-12-07T04:00:50;3.80;99.90
8557;DHT22;4316;53.840;10.762;2022-12-07T04:03:16;3.70;99.90
8557;DHT22;4316;53.840;10.762;2022-12-07T04:05:42;3.70;99.90
8557;DHT22;4316;53.840;10.762;2022-12-07T04:08:08;3.70;99.90
8557;DHT22;4316;53.840;10.762;2022-12-07T04:10:34;3.70;99.90
8557;DHT22;4316;53.840;10.762;2022-12-07T04:12:59;3.70;99.90
8557;DHT22;4316;53.840;10.762;2022-12-07T04:15:25;3.70;99.90
8557;DHT22;4316;53.840;10.762;2022-12-07T04:17:51;3.70;99.90
8557;DHT22;4316;53.840;10.762;2022-12-07T04:20:16;3.70;99.90
8557;DHT22;4316;53.840;10.762;2022-12-07T04:22:42;3.70;99.90
8557;DHT22;4316;53.840;10.762;2022-12-07T04:25:08;3.70;99.90
8557;DHT22;4316;53.840;10.762;2022-12-07T04:27:33;3.70;99.90
8557;DHT22;4316;53.840;10.762;2022-12-07T04:29:59;3.70;99.90
8557;DHT22;4316;53.840;10.762;2022-12-07T04:32:25;3.70;99.90
8557;DHT22;4316;53.840;10.762;2022-12-07T04:34:50;3.70;99.90
8557;DHT22;4316;53.840;10.762;2022-12-07T04:37:16;3.70;99.90
8557;DHT22;4316;53.840;10.762;2022-12-07T04:39:43;3.60;99.90
8557;DHT22;4316;53.840;10.762;2022-12-07T04:42:10;3.60;99.90
8557;DHT22;4316;53.840;10.762;2022-12-07T04:44:36;3.50;99.90
8557;DHT22;4316;53.840;10.762;2022-12-07T04:47:02;3.50;99.90
8557;DHT22;4316;53.840;10.762;2022-12-07T04:49:28;3.50;99.90
8557;DHT22;4316;53.840;10.762;2022-12-07T04:51:54;3.50;99.90
8557;DHT22;4316;53.840;10.762;2022-12-07T04:54:19;3.50;99.90
8557;DHT22;4316;53.840;10.762;2022-12-07T04:56:45;3.40;99.90
8557;DHT22;4316;53.840;10.762;2022-12-07T04:59:12;3.40;99.90
8557;DHT22;4316;53.840;10.762;2022-12-07T05:01:38;3.40;99.90
8557;DHT22;4316;53.840;10.762;2022-12-07T05:04:04;3.40;99.90
8557;DHT22;4316;53.840;10.762;2022-12-07T05:06:29;3.40;99.90
8557;DHT22;4316;53.840;10.762;2022-12-07T05:08:55;3.40;99.90
8557;DHT22;4316;53.840;10.762;2022-12-07T05:11:20;3.40;99.90
8557;DHT22;4316;53.840;10.762;2022-12-07T05:14:19;3.40;99.90
8557;DHT22;4316;53.840;10.762;2022-12-07T05:16:47;3.30;99.90
8557;DHT22;4316;53.840;10.762;2022-12-07T05:19:13;3.20;99.90
8557;DHT22;4316;53.840;10.762;2022-12-07T05:21:39;3.20;99.90
8557;DHT22;4316;53.840;10.762;2022-12-07T05:24:06;3.40;99.90
8557;DHT22;4316;53.840;10.762;2022-12-07T05:26:32;3.10;99.90
8557;DHT22;4316;53.840;10.762;2022-12-07T05:28:58;3.10;99.90
8557;DHT22;4316;53.840;10.762;2022-12-07T05:31:24;3.00;99.90
8557;DHT22;4316;53.840;10.762;2022-12-07T05:33:51;3.10;99.90
8557;DHT22;4316;53.840;10.762;2022-12-07T05:36:16;3.00;99.90
8557;DHT22;4316;53.840;10.762;2022-12-07T05:38:42;3.00;99.90
8557;DHT22;4316;53.840;10.762;2022-12-07T05:41:08;3.00;99.90
8557;DHT22;4316;53.840;10.762;2022-12-07T05:43:57;3.00;99.90
8557;DHT22;4316;53.840;10.762;2022-12-07T05:46:23;2.90;99.90
8557;DHT22;4316;53.840;10.762;2022-12-07T05:48:48;3.00;99.90
8557;DHT22;4316;53.840;10.762;2022-12-07T05:51:14;2.90;99.90
8557;DHT22;4316;53.840;10.762;2022-12-07T05:53:39;2.90;99.90
8557;DHT22;4316;53.840;10.762;2022-12-07T05:56:05;2.90;99.90
8557;DHT22;4316;53.840;10.762;2022-12-07T05:58:31;2.80;99.90
8557;DHT22;4316;53.840;10.762;2022-12-07T06:01:15;2.70;99.90
8557;DHT22;4316;53.840;10.762;2022-12-07T06:03:40;2.70;99.90
8557;DHT22;4316;53.840;10.762;2022-12-07T06:06:06;2.60;99.90
8557;DHT22;4316;53.840;10.762;2022-12-07T06:08:31;2.60;99.90
8557;DHT22;4316;53.840;10.762;2022-12-07T06:10:57;2.60;99.90
8557;DHT22;4316;53.840;10.762;2022-12-07T06:13:41;2.50;99.90
8557;DHT22;4316;53.840;10.762;2022-12-07T06:16:07;2.50;99.90
8557;DHT22;4316;53.840;10.762;2022-12-07T06:18:32;2.50;99.90
8557;DHT22;4316;53.840;10.762;2022-12-07T06:20:58;2.50;99.90
8557;DHT22;4316;53.840;10.762;2022-12-07T06:23:23;2.50;99.90
8557;DHT22;4316;53.840;10.762;2022-12-07T06:25:49;2.40;99.90
8557;DHT22;4316;53.840;10.762;2022-12-07T06:28:14;2.40;99.90
8557;DHT22;4316;53.840;10.762;2022-12-07T06:30:40;2.40;99.90
8557;DHT22;4316;53.840;10.762;2022-12-07T06:33:05;2.40;99.90
8557;DHT22;4316;53.840;10.762;2022-12-07T06:35:33;2.30;99.90
8557;DHT22;4316;53.840;10.762;2022-12-07T06:37:58;2.30;99.90
8557;DHT22;4316;53.840;10.762;2022-12-07T06:40:24;2.30;99.90
8557;DHT22;4316;53.840;10.762;2022-12-07T06:42:50;2.20;99.90
8557;DHT22;4316;53.840;10.762;2022-12-07T06:45:15;2.20;99.90
8557;DHT22;4316;53.840;10.762;2022-12-07T06:47:41;2.10;99.90
8557;DHT22;4316;53.840;10.762;2022-12-07T06:50:07;2.10;99.90
8557;DHT22;4316;53.840;10.762;2022-12-07T06:52:33;2.10;99.90
8557;DHT22;4316;53.840;10.762;2022-12-07T06:54:59;2.10;99.90
8557;DHT22;4316;53.840;10.762;2022-12-07T06:57:25;2.10;99.90
8557;DHT22;4316;53.840;10.762;2022-12-07T06:59:50;2.10;99.90
8557;DHT22;4316;53.840;10.762;2022-12-07T07:02:16;2.10;99.90
8557;DHT22;4316;53.840;10.762;2022-12-07T07:04:42;2.10;99.90
8557;DHT22;4316;53.840;10.762;2022-12-07T07:07:07;2.00;99.90
8557;DHT22;4316;53.840;10.762;2022-12-07T07:09:33;2.00;99.90
8557;DHT22;4316;53.840;10.762;2022-12-07T07:11:58;2.00;99.90
8557;DHT22;4316;53.840;10.762;2022-12-07T07:14:24;2.10;99.90
8557;DHT22;4316;53.840;10.762;2022-12-07T07:16:49;2.10;99.90
8557;DHT22;4316;53.840;10.762;2022-12-07T07:19:15;2.10;99.90
8557;DHT22;4316;53.840;10.762;2022-12-07T07:21:40;2.10;99.90
8557;DHT22;4316;53.840;10.762;2022-12-07T07:24:06;2.20;99.90
8557;DHT22;4316;53.840;10.762;2022-12-07T07:26:32;2.20;99.90
8557;DHT22;4316;53.840;10.762;2022-12-07T07:28:57;2.10;99.90
8557;DHT22;4316;53.840;10.762;2022-12-07T07:31:23;2.20;99.90
8557;DHT22;4316;53.840;10.762;2022-12-07T07:33:48;2.20;99.90
8557;DHT22;4316;53.840;10.762;2022-12-07T07:36:14;2.20;99.90
8557;DHT22;4316;53.840;10.762;2022-12-07T07:38:40;2.20;99.90
8557;DHT22;4316;53.840;10.762;2022-12-07T07:41:05;2.10;99.90
8557;DHT22;4316;53.840;10.762;2022-12-07T07:43:32;2.10;99.90
8557;DHT22;4316;53.840;10.762;2022-12-07T07:45:58;2.00;99.90
8557;DHT22;4316;53.840;10.762;2022-12-07T07:48:23;2.10;99.90
8557;DHT22;4316;53.840;10.762;2022-12-07T07:50:51;2.10;99.90
8557;DHT22;4316;53.840;10.762;2022-12-07T07:53:18;2.10;99.90
8557;DHT22;4316;53.840;10.762;2022-12-07T07:55:52;2.20;99.90
8557;DHT22;4316;53.840;10.762;2022-12-07T07:58:18;2.20;99.90
8557;DHT22;4316;53.840;10.762;2022-12-07T08:00:44;2.20;99.90
8557;DHT22;4316;53.840;10.762;2022-12-07T08:03:09;2.20;99.90
8557;DHT22;4316;53.840;10.762;2022-12-07T08:05:36;2.30;99.90
8557;DHT22;4316;53.840;10.762;2022-12-07T08:08:02;2.30;99.90
8557;DHT22;4316;53.840;10.762;2022-12-07T08:10:28;2.30;99.90
8557;DHT22;4316;53.840;10.762;2022-12-07T08:12:53;2.40;99.90
8557;DHT22;4316;53.840;10.762;2022-12-07T08:15:41;2.50;99.90
8557;DHT22;4316;53.840;10.762;2022-12-07T08:18:07;2.60;99.90
8557;DHT22;4316;53.840;10.762;2022-12-07T08:20:35;2.70;99.90
8557;DHT22;4316;53.840;10.762;2022-12-07T08:23:02;2.70;99.90
8557;DHT22;4316;53.840;10.762;2022-12-07T08:25:28;2.80;99.90
8557;DHT22;4316;53.840;10.762;2022-12-07T08:27:54;2.90;99.90
8557;DHT22;4316;53.840;10.762;2022-12-07T08:30:20;3.20;99.90
8557;DHT22;4316;53.840;10.762;2022-12-07T08:32:46;3.60;99.90
8557;DHT22;4316;53.840;10.762;2022-12-07T08:35:13;3.90;99.90
8557;DHT22;4316;53.840;10.762;2022-12-07T08:37:38;4.00;99.90
8557;DHT22;4316;53.840;10.762;2022-12-07T08:40:05;3.90;99.90
8557;DHT22;4316;53.840;10.762;2022-12-07T08:42:31;3.70;99.90
8557;DHT22;4316;53.840;10.762;2022-12-07T08:45:11;3.50;99.90
8557;DHT22;4316;53.840;10.762;2022-12-07T08:47:41;3.30;99.90
8557;DHT22;4316;53.840;10.762;2022-12-07T08:50:10;3.20;99.90
8557;DHT22;4316;53.840;10.762;2022-12-07T08:52:37;3.10;99.90
8557;DHT22;4316;53.840;10.762;2022-12-07T08:55:05;3.10;99.90
8557;DHT22;4316;53.840;10.762;2022-12-07T08:57:32;3.10;99.90
8557;DHT22;4316;53.840;10.762;2022-12-07T08:59:59;3.30;99.90
8557;DHT22;4316;53.840;10.762;2022-12-07T09:02:25;3.70;99.90
8557;DHT22;4316;53.840;10.762;2022-12-07T09:04:51;4.10;99.90
8557;DHT22;4316;53.840;10.762;2022-12-07T09:07:16;4.10;99.90
8557;DHT22;4316;53.840;10.762;2022-12-07T09:09:42;4.00;99.90
8557;DHT22;4316;53.840;10.762;2022-12-07T09:12:08;3.80;99.90
8557;DHT22;4316;53.840;10.762;2022-12-07T09:14:33;3.70;99.90
8557;DHT22;4316;53.840;10.762;2022-12-07T09:17:07;3.60;99.90
8557;DHT22;4316;53.840;10.762;2022-12-07T09:19:32;3.50;99.90
8557;DHT22;4316;53.840;10.762;2022-12-07T09:21:58;3.50;99.90
8557;DHT22;4316;53.840;10.762;2022-12-07T09:24:24;3.50;99.90
8557;DHT22;4316;53.840;10.762;2022-12-07T09:26:49;3.40;99.90
8557;DHT22;4316;53.840;10.762;2022-12-07T09:29:15;3.40;99.90
8557;DHT22;4316;53.840;10.762;2022-12-07T09:31:40;3.40;99.90
8557;DHT22;4316;53.840;10.762;2022-12-07T09:34:06;3.30;99.90
8557;DHT22;4316;53.840;10.762;2022-12-07T09:36:32;3.30;99.90
8557;DHT22;4316;53.840;10.762;2022-12-07T09:38:58;3.30;99.90
8557;DHT22;4316;53.840;10.762;2022-12-07T09:41:25;3.30;99.90
8557;DHT22;4316;53.840;10.762;2022-12-07T09:43:53;3.30;99.90
8557;DHT22;4316;53.840;10.762;2022-12-07T09:46:21;3.30;99.90
8557;DHT22;4316;53.840;10.762;2022-12-07T09:48:49;3.30;99.90
8557;DHT22;4316;53.840;10.762;2022-12-07T09:51:19;3.40;99.90
8557;DHT22;4316;53.840;10.762;2022-12-07T09:53:46;3.40;99.90
8557;DHT22;4316;53.840;10.762;2022-12-07T09:56:17;3.40;99.90
8557;DHT22;4316;53.840;10.762;2022-12-07T09:58:44;3.40;99.90
8557;DHT22;4316;53.840;10.762;2022-12-07T10:03:42;3.30;99.90
8557;DHT22;4316;53.840;10.762;2022-12-07T10:06:11;3.30;99.90
8557;DHT22;4316;53.840;10.762;2022-12-07T10:08:37;3.30;99.90
8557;DHT22;4316;53.840;10.762;2022-12-07T10:11:03;3.30;99.90
8557;DHT22;4316;53.840;10.762;2022-12-07T10:13:37;3.40;99.90
8557;DHT22;4316;53.840;10.762;2022-12-07T10:16:03;3.30;99.90
8557;DHT22;4316;53.840;10.762;2022-12-07T10:23:35;3.40;99.90
8557;DHT22;4316;53.840;10.762;2022-12-07T10:26:33;3.50;99.90
8557;DHT22;4316;53.840;10.762;2022-12-07T10:29:13;3.50;99.90
8557;DHT22;4316;53.840;10.762;2022-12-07T10:31:40;3.50;99.90
8557;DHT22;4316;53.840;10.762;2022-12-07T10:34:36;3.60;99.90
8557;DHT22;4316;53.840;10.762;2022-12-07T10:39:52;3.80;99.90
8557;DHT22;4316;53.840;10.762;2022-12-07T10:42:25;3.80;99.90
8557;DHT22;4316;53.840;10.762;2022-12-07T10:45:14;3.90;99.90
8557;DHT22;4316;53.840;10.762;2022-12-07T10:48:00;3.80;99.90
8557;DHT22;4316;53.840;10.762;2022-12-07T10:53:53;4.00;99.90
8557;DHT22;4316;53.840;10.762;2022-12-07T11:01:41;4.10;99.90
8557;DHT22;4316;53.840;10.762;2022-12-07T11:07:06;4.30;99.90
8557;DHT22;4316;53.840;10.762;2022-12-07T11:09:55;4.50;99.90
8557;DHT22;4316;53.840;10.762;2022-12-07T11:15:49;4.30;99.90
8557;DHT22;4316;53.840;10.762;2022-12-07T11:18:26;4.30;99.90
8557;DHT22;4316;53.840;10.762;2022-12-07T11:21:13;4.20;99.90
8557;DHT22;4316;53.840;10.762;2022-12-07T11:24:06;4.00;99.90
8557;DHT22;4316;53.840;10.762;2022-12-07T11:26:54;4.00;99.90
8557;DHT22;4316;53.840;10.762;2022-12-07T11:35:05;4.10;99.90
8557;DHT22;4316;53.840;10.762;2022-12-07T11:37:35;4.10;99.90
8557;DHT22;4316;53.840;10.762;2022-12-07T11:40:33;4.10;99.90
8557;DHT22;4316;53.840;10.762;2022-12-07T11:43:21;4.10;99.90
8557;DHT22;4316;53.840;10.762;2022-12-07T11:45:58;4.10;99.90
8557;DHT22;4316;53.840;10.762;2022-12-07T11:48:46;4.10;99.90
8557;DHT22;4316;53.840;10.762;2022-12-07T11:51:13;4.10;99.90
8557;DHT22;4316;53.840;10.762;2022-12-07T11:53:56;4.10;99.90
8557;DHT22;4316;53.840;10.762;2022-12-07T11:56:26;4.10;99.90
8557;DHT22;4316;53.840;10.762;2022-12-07T11:59:16;4.10;99.90
8557;DHT22;4316;53.840;10.762;2022-12-07T12:07:31;4.00;99.90
8557;DHT22;4316;53.840;10.762;2022-12-07T12:10:03;4.00;99.90
8557;DHT22;4316;53.840;10.762;2022-12-07T12:13:01;4.10;99.90
8557;DHT22;4316;53.840;10.762;2022-12-07T12:15:55;4.10;99.90
8557;DHT22;4316;53.840;10.762;2022-12-07T12:18:49;4.10;99.90
8557;DHT22;4316;53.840;10.762;2022-12-07T12:21:20;4.10;99.90
8557;DHT22;4316;53.840;10.762;2022-12-07T12:24:13;4.10;99.90
8557;DHT22;4316;53.840;10.762;2022-12-07T12:26:52;4.10;99.90
8557;DHT22;4316;53.840;10.762;2022-12-07T12:29:39;4.00;99.90
8557;DHT22;4316;53.840;10.762;2022-12-07T12:42:50;4.00;99.90
8557;DHT22;4316;53.840;10.762;2022-12-07T12:45:21;4.00;99.90
8557;DHT22;4316;53.840;10.762;2022-12-07T12:50:46;3.90;99.90
8557;DHT22;4316;53.840;10.762;2022-12-07T12:53:21;3.90;99.90
8557;DHT22;4316;53.840;10.762;2022-12-07T12:55:52;3.90;99.90
8557;DHT22;4316;53.840;10.762;2022-12-07T12:58:30;3.90;99.90
8557;DHT22;4316;53.840;10.762;2022-12-07T13:03:59;4.00;99.90
8557;DHT22;4316;53.840;10.762;2022-12-07T13:08:53;3.90;99.90
8557;DHT22;4316;53.840;10.762;2022-12-07T13:11:32;3.90;99.90
8557;DHT22;4316;53.840;10.762;2022-12-07T13:17:01;3.80;99.90
8557;DHT22;4316;53.840;10.762;2022-12-07T13:19:56;3.80;99.90
8557;DHT22;4316;53.840;10.762;2022-12-07T13:27:25;3.70;99.90
8557;DHT22;4316;53.840;10.762;2022-12-07T13:29:52;3.70;99.90
8557;DHT22;4316;53.840;10.762;2022-12-07T13:32:25;3.70;99.90
8557;DHT22;4316;53.840;10.762;2022-12-07T13:34:51;3.80;99.90
8557;DHT22;4316;53.840;10.762;2022-12-07T13:37:27;3.70;99.90
8557;DHT22;4316;53.840;10.762;2022-12-07T13:39:59;3.70;99.90
8557;DHT22;4316;53.840;10.762;2022-12-07T13:44:52;3.60;99.90
8557;DHT22;4316;53.840;10.762;2022-12-07T13:47:30;3.60;99.90
8557;DHT22;4316;53.840;10.762;2022-12-07T13:49:56;3.60;99.90
8557;DHT22;4316;53.840;10.762;2022-12-07T13:52:25;3.50;99.90
8557;DHT22;4316;53.840;10.762;2022-12-07T13:57:33;3.50;99.90
8557;DHT22;4316;53.840;10.762;2022-12-07T14:00:03;3.40;99.90
8557;DHT22;4316;53.840;10.762;2022-12-07T14:02:32;3.40;99.90
8557;DHT22;4316;53.840;10.762;2022-12-07T14:05:10;3.40;99.90
8557;DHT22;4316;53.840;10.762;2022-12-07T14:08:04;3.40;99.90
8557;DHT22;4316;53.840;10.762;2022-12-07T14:12:57;3.40;99.90
8557;DHT22;4316;53.840;10.762;2022-12-07T14:15:29;3.40;99.90
8557;DHT22;4316;53.840;10.762;2022-12-07T14:17:57;3.40;99.90
8557;DHT22;4316;53.840;10.762;2022-12-07T14:20:37;3.30;99.90
8557;DHT22;4316;53.840;10.762;2022-12-07T14:23:05;3.20;99.90
8557;DHT22;4316;53.840;10.762;2022-12-07T14:25:47;3.20;99.90
8557;DHT22;4316;53.840;10.762;2022-12-07T14:28:29;3.10;99.90
8557;DHT22;4316;53.840;10.762;2022-12-07T14:30:55;3.10;99.90
8557;DHT22;4316;53.840;10.762;2022-12-07T14:33:21;3.10;99.90
8557;DHT22;4316;53.840;10.762;2022-12-07T14:35:46;3.10;99.90
8557;DHT22;4316;53.840;10.762;2022-12-07T14:38:12;3.00;99.90
8557;DHT22;4316;53.840;10.762;2022-12-07T14:40:38;3.10;99.90
8557;DHT22;4316;53.840;10.762;2022-12-07T14:43:16;2.90;99.90
8557;DHT22;4316;53.840;10.762;2022-12-07T14:45:42;2.90;99.90
8557;DHT22;4316;53.840;10.762;2022-12-07T14:48:11;2.90;99.90
8557;DHT22;4316;53.840;10.762;2022-12-07T14:50:39;2.80;99.90
8557;DHT22;4316;53.840;10.762;2022-12-07T14:53:15;2.80;99.90
8557;DHT22;4316;53.840;10.762;2022-12-07T14:55:41;2.80;99.90
8557;DHT22;4316;53.840;10.762;2022-12-07T14:58:15;2.80;99.90
8557;DHT22;4316;53.840;10.762;2022-12-07T15:00:41;2.70;99.90
8557;DHT22;4316;53.840;10.762;2022-12-07T15:03:07;2.70;99.90
8557;DHT22;4316;53.840;10.762;2022-12-07T15:05:33;2.60;99.90
8557;DHT22;4316;53.840;10.762;2022-12-07T15:07:59;2.70;99.90
8557;DHT22;4316;53.840;10.762;2022-12-07T15:10:27;2.60;99.90
8557;DHT22;4316;53.840;10.762;2022-12-07T15:13:02;2.60;99.90
8557;DHT22;4316;53.840;10.762;2022-12-07T15:15:47;2.60;99.90
8557;DHT22;4316;53.840;10.762;2022-12-07T15:18:13;2.50;99.90
8557;DHT22;4316;53.840;10.762;2022-12-07T15:20:39;2.50;99.90
8557;DHT22;4316;53.840;10.762;2022-12-07T15:23:05;2.40;99.90
8557;DHT22;4316;53.840;10.762;2022-12-07T15:25:30;2.40;99.90
8557;DHT22;4316;53.840;10.762;2022-12-07T15:27:56;2.40;99.90
8557;DHT22;4316;53.840;10.762;2022-12-07T15:30:21;2.30;99.90
8557;DHT22;4316;53.840;10.762;2022-12-07T15:32:51;2.30;99.90
8557;DHT22;4316;53.840;10.762;2022-12-07T15:35:17;2.30;99.90
8557;DHT22;4316;53.840;10.762;2022-12-07T15:37:42;2.40;99.90
8557;DHT22;4316;53.840;10.762;2022-12-07T15:40:08;2.50;99.90
8557;DHT22;4316;53.840;10.762;2022-12-07T15:42:35;2.50;99.90
8557;DHT22;4316;53.840;10.762;2022-12-07T15:45:01;2.50;99.90
8557;DHT22;4316;53.840;10.762;2022-12-07T15:47:34;2.50;99.90
8557;DHT22;4316;53.840;10.762;2022-12-07T15:50:05;2.50;99.90
8557;DHT22;4316;53.840;10.762;2022-12-07T15:52:31;2.50;99.90
8557;DHT22;4316;53.840;10.762;2022-12-07T15:54:57;2.50;99.90
8557;DHT22;4316;53.840;10.762;2022-12-07T15:57:25;2.40;99.90
8557;DHT22;4316;53.840;10.762;2022-12-07T15:59:51;2.30;99.90
8557;DHT22;4316;53.840;10.762;2022-12-07T16:02:17;2.40;99.90
8557;DHT22;4316;53.840;10.762;2022-12-07T16:04:42;2.50;99.90
8557;DHT22;4316;53.840;10.762;2022-12-07T16:07:08;2.50;99.90
8557;DHT22;4316;53.840;10.762;2022-12-07T16:09:34;2.40;99.90
8557;DHT22;4316;53.840;10.762;2022-12-07T16:11:59;2.50;99.90
8557;DHT22;4316;53.840;10.762;2022-12-07T16:14:25;2.50;99.90
8557;DHT22;4316;53.840;10.762;2022-12-07T16:16:50;2.60;99.90
8557;DHT22;4316;53.840;10.762;2022-12-07T16:19:16;2.80;99.90
8557;DHT22;4316;53.840;10.762;2022-12-07T16:21:41;2.90;99.90
8557;DHT22;4316;53.840;10.762;2022-12-07T16:24:08;2.90;99.90
8557;DHT22;4316;53.840;10.762;2022-12-07T16:26:33;2.80;99.90
8557;DHT22;4316;53.840;10.762;2022-12-07T16:28:59;2.70;99.90
8557;DHT22;4316;53.840;10.762;2022-12-07T16:31:26;2.70;99.90
8557;DHT22;4316;53.840;10.762;2022-12-07T16:33:54;2.60;99.90
8557;DHT22;4316;53.840;10.762;2022-12-07T16:36:20;2.80;99.90
8557;DHT22;4316;53.840;10.762;2022-12-07T16:38:48;2.80;99.90
8557;DHT22;4316;53.840;10.762;2022-12-07T16:41:13;2.80;99.90
8557;DHT22;4316;53.840;10.762;2022-12-07T16:43:39;2.70;99.90
8557;DHT22;4316;53.840;10.762;2022-12-07T16:46:05;2.70;99.90
8557;DHT22;4316;53.840;10.762;2022-12-07T16:48:38;2.70;99.90
8557;DHT22;4316;53.840;10.762;2022-12-07T16:51:09;2.60;99.90
8557;DHT22;4316;53.840;10.762;2022-12-07T16:53:36;2.40;99.90
8557;DHT22;4316;53.840;10.762;2022-12-07T16:56:02;2.40;99.90
8557;DHT22;4316;53.840;10.762;2022-12-07T16:58:28;2.50;99.90
8557;DHT22;4316;53.840;10.762;2022-12-07T17:00:54;2.50;99.90
8557;DHT22;4316;53.840;10.762;2022-12-07T17:03:20;2.40;99.90
8557;DHT22;4316;53.840;10.762;2022-12-07T17:05:46;2.40;99.90
8557;DHT22;4316;53.840;10.762;2022-12-07T17:08:13;2.40;99.90
8557;DHT22;4316;53.840;10.762;2022-12-07T17:10:41;2.50;99.90
8557;DHT22;4316;53.840;10.762;2022-12-07T17:13:07;2.60;99.90
8557;DHT22;4316;53.840;10.762;2022-12-07T17:16:03;2.70;99.90
8557;DHT22;4316;53.840;10.762;2022-12-07T17:18:31;2.70;99.90
8557;DHT22;4316;53.840;10.762;2022-12-07T17:21:02;2.80;99.90
8557;DHT22;4316;53.840;10.762;2022-12-07T17:23:29;2.70;99.90
8557;DHT22;4316;53.840;10.762;2022-12-07T17:25:55;2.70;99.90
8557;DHT22;4316;53.840;10.762;2022-12-07T17:28:21;2.70;99.90
8557;DHT22;4316;53.840;10.762;2022-12-07T17:30:46;2.60;99.90
8557;DHT22;4316;53.840;10.762;2022-12-07T17:33:12;2.60;99.90
8557;DHT22;4316;53.840;10.762;2022-12-07T17:35:38;2.50;99.90
8557;DHT22;4316;53.840;10.762;2022-12-07T17:38:03;2.50;99.90
8557;DHT22;4316;53.840;10.762;2022-12-07T17:40:29;2.50;99.90
8557;DHT22;4316;53.840;10.762;2022-12-07T17:42:54;2.40;99.90
8557;DHT22;4316;53.840;10.762;2022-12-07T17:45:20;2.40;99.90
8557;DHT22;4316;53.840;10.762;2022-12-07T17:47:46;2.50;99.90
8557;DHT22;4316;53.840;10.762;2022-12-07T17:50:11;2.60;99.90
8557;DHT22;4316;53.840;10.762;2022-12-07T17:52:38;2.60;99.90
8557;DHT22;4316;53.840;10.762;2022-12-07T17:55:22;2.60;99.90
8557;DHT22;4316;53.840;10.762;2022-12-07T17:57:48;2.70;99.90